sensor_id;sensor_type;location;lat;lon;timestamp;P1;durP1;ratioP1;P2;durP2;ratioP2
4527;SDS011;62320;51.520;6.818;2023-02-01T00:03:28;10.97;;;3.20;;
4527;SDS011;62320;51.520;6.818;2023-02-01T00:13:33;13.55;;;2.72;;
4527;SDS011;62320;51.520;6.818;2023-02-01T00:23:36;14.80;;;3.53;;
4527;SDS011;62320;51.520;6.818;2023-02-01T00:33:39;10.50;;;2.60;;
4527;SDS011;62320;51.520;6.818;2023-02-01T00:43:41;11.00;;;2.93;;
4527;SDS011;62320;51.520;6.818;2023-02-01T00:53:43;13.40;;;3.90;;
4527;SDS011;62320;51.520;6.818;2023-02-01T01:03:46;11.63;;;3.93;;
4527;SDS011;62320;51.520;6.818;2023-02-01T01:13:49;20.00;;;5.07;;
4527;SDS011;62320;51.520;6.818;2023-02-01T01:23:52;9.75;;;3.08;;
4527;SDS011;62320;51.520;6.818;2023-02-01T01:33:54;11.70;;;3.47;;
4527;SDS011;62320;51.520;6.818;2023-02-01T01:44:00;11.83;;;3.37;;
4527;SDS011;62320;51.520;6.818;2023-02-01T01:54:25;13.27;;;3.90;;
4527;SDS011;62320;51.520;6.818;2023-02-01T02:04:36;8.60;;;2.13;;
4527;SDS011;62320;51.520;6.818;2023-02-01T02:14:37;13.87;;;3.10;;
4527;SDS011;62320;51.520;6.818;2023-02-01T02:35:20;10.05;;;2.88;;
4527;SDS011;62320;51.520;6.818;2023-02-01T02:45:40;14.93;;;2.23;;
4527;SDS011;62320;51.520;6.818;2023-02-01T02:56:04;7.93;;;2.17;;
4527;SDS011;62320;51.520;6.818;2023-02-01T03:06:26;11.27;;;2.80;;
4527;SDS011;62320;51.520;6.818;2023-02-01T03:16:32;10.73;;;2.43;;
4527;SDS011;62320;51.520;6.818;2023-02-01T03:26:38;14.83;;;3.40;;
4527;SDS011;62320;51.520;6.818;2023-02-01T03:36:58;14.75;;;3.70;;
4527;SDS011;62320;51.520;6.818;2023-02-01T03:47:21;14.38;;;4.00;;
4527;SDS011;62320;51.520;6.818;2023-02-01T03:57:27;19.87;;;3.87;;
4527;SDS011;62320;51.520;6.818;2023-02-01T04:07:32;19.97;;;3.60;;
4527;SDS011;62320;51.520;6.818;2023-02-01T04:17:34;8.00;;;2.60;;
4527;SDS011;62320;51.520;6.818;2023-02-01T04:27:36;10.93;;;2.33;;
4527;SDS011;62320;51.520;6.818;2023-02-01T04:37:37;9.00;;;2.47;;
4527;SDS011;62320;51.520;6.818;2023-02-01T04:47:39;12.70;;;2.90;;
4527;SDS011;62320;51.520;6.818;2023-02-01T04:57:40;11.60;;;2.00;;
4527;SDS011;62320;51.520;6.818;2023-02-01T05:07:42;15.87;;;2.67;;
4527;SDS011;62320;51.520;6.818;2023-02-01T05:17:43;8.02;;;1.80;;
4527;SDS011;62320;51.520;6.818;2023-02-01T05:27:45;12.23;;;2.40;;
4527;SDS011;62320;51.520;6.818;2023-02-01T05:37:46;13.23;;;2.27;;
4527;SDS011;62320;51.520;6.818;2023-02-01T05:47:48;16.67;;;2.57;;
4527;SDS011;62320;51.520;6.818;2023-02-01T05:57:49;10.85;;;2.17;;
4527;SDS011;62320;51.520;6.818;2023-02-01T06:07:50;13.13;;;2.03;;
4527;SDS011;62320;51.520;6.818;2023-02-01T06:17:53;12.57;;;2.47;;
4527;SDS011;62320;51.520;6.818;2023-02-01T06:27:55;19.88;;;3.25;;
4527;SDS011;62320;51.520;6.818;2023-02-01T06:38:01;10.10;;;2.20;;
4527;SDS011;62320;51.520;6.818;2023-02-01T06:48:03;12.17;;;2.20;;
4527;SDS011;62320;51.520;6.818;2023-02-01T06:58:04;11.05;;;1.55;;
4527;SDS011;62320;51.520;6.818;2023-02-01T07:08:06;10.90;;;1.85;;
4527;SDS011;62320;51.520;6.818;2023-02-01T07:18:07;6.90;;;1.83;;
4527;SDS011;62320;51.520;6.818;2023-02-01T07:28:09;8.47;;;2.17;;
4527;SDS011;62320;51.520;6.818;2023-02-01T07:38:10;13.25;;;2.28;;
4527;SDS011;62320;51.520;6.818;2023-02-01T07:48:12;15.00;;;2.97;;
4527;SDS011;62320;51.520;6.818;2023-02-01T07:58:13;12.23;;;2.33;;
4527;SDS011;62320;51.520;6.818;2023-02-01T08:08:14;13.80;;;2.70;;
4527;SDS011;62320;51.520;6.818;2023-02-01T08:18:16;16.90;;;2.90;;
4527;SDS011;62320;51.520;6.818;2023-02-01T08:28:19;7.60;;;1.97;;
4527;SDS011;62320;51.520;6.818;2023-02-01T08:38:21;10.38;;;2.28;;
4527;SDS011;62320;51.520;6.818;2023-02-01T08:48:22;10.60;;;2.72;;
4527;SDS011;62320;51.520;6.818;2023-02-01T08:58:24;10.90;;;3.03;;
4527;SDS011;62320;51.520;6.818;2023-02-01T09:08:25;13.90;;;3.63;;
4527;SDS011;62320;51.520;6.818;2023-02-01T09:18:27;15.23;;;3.08;;
4527;SDS011;62320;51.520;6.818;2023-02-01T09:28:29;7.93;;;2.33;;
4527;SDS011;62320;51.520;6.818;2023-02-01T09:38:31;13.53;;;2.67;;
4527;SDS011;62320;51.520;6.818;2023-02-01T09:48:36;10.20;;;2.25;;
4527;SDS011;62320;51.520;6.818;2023-02-01T09:59:01;15.50;;;3.23;;
4527;SDS011;62320;51.520;6.818;2023-02-01T10:29:45;13.30;;;3.05;;
4527;SDS011;62320;51.520;6.818;2023-02-01T10:39:54;9.40;;;2.53;;
4527;SDS011;62320;51.520;6.818;2023-02-01T10:50:15;10.13;;;2.77;;
4527;SDS011;62320;51.520;6.818;2023-02-01T11:00:24;16.23;;;4.18;;
4527;SDS011;62320;51.520;6.818;2023-02-01T11:10:37;9.97;;;2.27;;
4527;SDS011;62320;51.520;6.818;2023-02-01T11:20:40;15.77;;;3.50;;
4527;SDS011;62320;51.520;6.818;2023-02-01T11:30:43;14.68;;;3.83;;
4527;SDS011;62320;51.520;6.818;2023-02-01T11:40:48;13.10;;;3.37;;
4527;SDS011;62320;51.520;6.818;2023-02-01T11:51:01;16.37;;;2.77;;
4527;SDS011;62320;51.520;6.818;2023-02-01T12:11:44;11.48;;;2.97;;
4527;SDS011;62320;51.520;6.818;2023-02-01T12:43:02;16.23;;;2.47;;
4527;SDS011;62320;51.520;6.818;2023-02-01T12:53:27;10.50;;;2.30;;
4527;SDS011;62320;51.520;6.818;2023-02-01T13:13:52;7.72;;;2.03;;
4527;SDS011;62320;51.520;6.818;2023-02-01T13:24:01;9.93;;;2.00;;
4527;SDS011;62320;51.520;6.818;2023-02-01T13:44:33;8.63;;;1.88;;
4527;SDS011;62320;51.520;6.818;2023-02-01T13:54:38;13.05;;;2.35;;
4527;SDS011;62320;51.520;6.818;2023-02-01T14:04:48;12.83;;;2.40;;
4527;SDS011;62320;51.520;6.818;2023-02-01T14:14:51;15.97;;;3.20;;
4527;SDS011;62320;51.520;6.818;2023-02-01T14:25:24;9.63;;;2.15;;
4527;SDS011;62320;51.520;6.818;2023-02-01T14:35:26;10.27;;;2.60;;
4527;SDS011;62320;51.520;6.818;2023-02-01T15:05:34;9.50;;;1.53;;
4527;SDS011;62320;51.520;6.818;2023-02-01T15:15:36;8.70;;;2.47;;
4527;SDS011;62320;51.520;6.818;2023-02-01T15:25:39;11.18;;;2.28;;
4527;SDS011;62320;51.520;6.818;2023-02-01T15:35:41;9.23;;;1.63;;
4527;SDS011;62320;51.520;6.818;2023-02-01T15:45:46;7.77;;;1.83;;
4527;SDS011;62320;51.520;6.818;2023-02-01T15:55:50;19.30;;;1.87;;
4527;SDS011;62320;51.520;6.818;2023-02-01T16:05:55;13.52;;;2.13;;
4527;SDS011;62320;51.520;6.818;2023-02-01T16:15:58;9.20;;;1.90;;
4527;SDS011;62320;51.520;6.818;2023-02-01T16:26:00;9.40;;;2.10;;
4527;SDS011;62320;51.520;6.818;2023-02-01T16:36:02;10.70;;;2.22;;
4527;SDS011;62320;51.520;6.818;2023-02-01T16:46:05;9.03;;;2.03;;
4527;SDS011;62320;51.520;6.818;2023-02-01T16:56:16;9.10;;;2.10;;
4527;SDS011;62320;51.520;6.818;2023-02-01T17:06:20;7.70;;;2.03;;
4527;SDS011;62320;51.520;6.818;2023-02-01T17:16:25;10.65;;;2.25;;
4527;SDS011;62320;51.520;6.818;2023-02-01T17:26:29;11.23;;;2.10;;
4527;SDS011;62320;51.520;6.818;2023-02-01T17:36:31;11.90;;;2.37;;
4527;SDS011;62320;51.520;6.818;2023-02-01T17:46:32;10.13;;;1.75;;
4527;SDS011;62320;51.520;6.818;2023-02-01T17:56:34;12.13;;;2.53;;
4527;SDS011;62320;51.520;6.818;2023-02-01T18:06:35;7.37;;;1.67;;
4527;SDS011;62320;51.520;6.818;2023-02-01T18:16:38;9.73;;;3.10;;
4527;SDS011;62320;51.520;6.818;2023-02-01T18:26:40;10.47;;;1.93;;
4527;SDS011;62320;51.520;6.818;2023-02-01T18:36:42;12.77;;;3.67;;
4527;SDS011;62320;51.520;6.818;2023-02-01T18:46:44;12.25;;;2.38;;
4527;SDS011;62320;51.520;6.818;2023-02-01T18:56:45;7.78;;;1.73;;
4527;SDS011;62320;51.520;6.818;2023-02-01T19:06:47;15.80;;;2.43;;
4527;SDS011;62320;51.520;6.818;2023-02-01T19:16:49;6.60;;;1.63;;
4527;SDS011;62320;51.520;6.818;2023-02-01T19:26:51;11.65;;;2.20;;
4527;SDS011;62320;51.520;6.818;2023-02-01T19:36:54;11.77;;;3.03;;
4527;SDS011;62320;51.520;6.818;2023-02-01T19:46:55;9.73;;;2.20;;
4527;SDS011;62320;51.520;6.818;2023-02-01T19:56:57;5.95;;;1.30;;
4527;SDS011;62320;51.520;6.818;2023-02-01T20:06:59;4.43;;;0.80;;
4527;SDS011;62320;51.520;6.818;2023-02-01T20:17:01;4.07;;;1.13;;
4527;SDS011;62320;51.520;6.818;2023-02-01T20:27:02;3.03;;;0.70;;
4527;SDS011;62320;51.520;6.818;2023-02-01T20:37:04;7.47;;;1.48;;
4527;SDS011;62320;51.520;6.818;2023-02-01T20:47:05;4.93;;;1.40;;
4527;SDS011;62320;51.520;6.818;2023-02-01T20:57:07;5.87;;;1.90;;
4527;SDS011;62320;51.520;6.818;2023-02-01T21:07:08;6.40;;;1.70;;
4527;SDS011;62320;51.520;6.818;2023-02-01T21:17:10;11.97;;;2.63;;
4527;SDS011;62320;51.520;6.818;2023-02-01T21:27:11;5.80;;;1.60;;
4527;SDS011;62320;51.520;6.818;2023-02-01T21:37:13;7.78;;;2.00;;
4527;SDS011;62320;51.520;6.818;2023-02-01T21:47:15;5.50;;;1.87;;
4527;SDS011;62320;51.520;6.818;2023-02-01T21:57:25;3.87;;;0.80;;
4527;SDS011;62320;51.520;6.818;2023-02-01T22:07:27;5.25;;;1.35;;
4527;SDS011;62320;51.520;6.818;2023-02-01T22:17:29;6.93;;;1.40;;
4527;SDS011;62320;51.520;6.818;2023-02-01T22:27:31;4.80;;;1.17;;
4527;SDS011;62320;51.520;6.818;2023-02-01T22:37:53;7.93;;;1.57;;
4527;SDS011;62320;51.520;6.818;2023-02-01T22:47:54;6.78;;;1.38;;
4527;SDS011;62320;51.520;6.818;2023-02-01T22:57:55;6.10;;;1.40;;
4527;SDS011;62320;51.520;6.818;2023-02-01T23:07:57;4.10;;;1.27;;
4527;SDS011;62320;51.520;6.818;2023-02-01T23:17:58;8.27;;;1.70;;
4527;SDS011;62320;51.520;6.818;2023-02-01T23:28:00;8.37;;;2.17;;
4527;SDS011;62320;51.520;6.818;2023-02-01T23:38:01;6.37;;;1.83;;
4527;SDS011;62320;51.520;6.818;2023-02-01T23:48:03;11.65;;;3.08;;
4527;SDS011;62320;51.520;6.818;2023-02-01T23:58:06;11.55;;;3.17;;
